Fairhill, SC

11:04 AM EDT on July 23, 2017 (GMT -0400)
Cedarwood | | Change Station

Elev 217 ft 33.94 °N, 81.14 °W | Updated 29 seconds ago

Partly Cloudy
Partly Cloudy
90.0 °F
Feels Like 103 °F
N
2.9
Wind Variable Wind from SW
Gusts 5.0 mph

Today
High -- | Low -- °F
--% Chance of Precip.
Yesterday
High -- | Low -- °F
Precip. -- in
Pressure 29.91 in
Visibility 10.0 miles
Clouds Few 20000 ft
Heat Index 103 °F
Dew Point 77 °F
Humidity 66%
Rainfall 0.00 in
Snow Depth Not available.
6:29 AM 8:31 PM
New Moon, 0% visible
METAR KCAE 231456Z 25008KT 10SM FEW200 32/24 A2992 RMK AO2 SLP128 T03220239 58002
Pressure 29.91 in
Visibility 10.0 miles
Clouds Few 20000 ft
Heat Index 103 °F
Dew Point 77 °F
Humidity 66%
Rainfall 0.00 in
Snow Depth Not available.
6:29 AM 8:31 PM
New Moon, 0% visible
METAR KCAE 231456Z 25008KT 10SM FEW200 32/24 A2992 RMK AO2 SLP128 T03220239 58002

Get Severe Weather Alerts

Thanks for signing up!

Be on the lookout for a verification email in your inbox.

You'll start receiving the daily forecast at 6 AM.

×

10-Day Weather Forecast

Almanac

Astronomy

Jul. 23, 2017 Rise Set
Actual Time
Civil Twilight
Nautical Twilight
Astronomical Twilight
Moon
Length of Visible Light
Length of Day
Tomorrow will be .
, % of the Moon is Illuminated

Today's Extremes

State Highs State Lows

Community

WunderPhotos

Category 6

Welcome to Category 6. This is the collective home for Weather Underground's featured writeups by Dr. Jeff Masters (right), Bob Henson (left), Chris Burt, and other regular contributors.

Nearby

Air Quality

  Air Quality AQ Index Pollutant
Not available.

Snow Depth

Station Depth Elevation

Earthquake Activity

City Distance Mag. Time & Date
Minimum magnitude displayed is 2.5.

Coastal Water Temperatures

Place Temperature

Stations

Nearby Weather Stations

Station Location Temp. Windchill Dew Point Humidity Wind Precip. Elev Updated Type
                   

Watches & Warnings

There are currently no watches in effect.